createdAt,value
2023-08-08T00:02:03.861Z,7.38
2023-08-08T00:04:31.828Z,7.28
2023-08-08T00:07:01.186Z,7.63
2023-08-08T00:09:29.241Z,8.10
2023-08-08T00:11:58.454Z,7.25
2023-08-08T00:14:26.673Z,6.65
2023-08-08T00:16:54.652Z,6.95
2023-08-08T00:19:22.693Z,6.88
2023-08-08T00:21:50.654Z,6.90
2023-08-08T00:24:19.999Z,7.72
2023-08-08T00:26:47.974Z,6.78
2023-08-08T00:29:15.942Z,6.78
2023-08-08T00:31:43.972Z,5.88
2023-08-08T00:34:12.030Z,5.97
2023-08-08T00:36:40.023Z,6.93
2023-08-08T00:39:09.032Z,6.20
2023-08-08T00:41:38.356Z,5.45
2023-08-08T00:44:06.325Z,6.20
2023-08-08T00:46:34.598Z,5.57
2023-08-08T00:51:30.508Z,4.80
2023-08-08T00:53:59.253Z,5.00
2023-08-08T00:56:28.105Z,5.05
2023-08-08T00:58:57.491Z,4.68
2023-08-08T01:01:25.516Z,4.78
2023-08-08T01:03:54.290Z,5.57
2023-08-08T01:06:30.857Z,4.68
2023-08-08T01:09:02.651Z,5.05
2023-08-08T01:11:32.811Z,4.72
2023-08-08T01:14:04.139Z,4.80
2023-08-08T01:16:32.824Z,5.15
2023-08-08T01:19:01.400Z,4.53
2023-08-08T01:21:32.028Z,5.20
2023-08-08T01:24:08.616Z,4.80
2023-08-08T01:26:38.102Z,5.00
2023-08-08T01:29:06.192Z,4.10
2023-08-08T01:31:34.208Z,3.88
2023-08-08T01:34:02.282Z,4.22
2023-08-08T01:36:36.642Z,4.05
2023-08-08T01:39:06.933Z,4.00
2023-08-08T01:41:36.023Z,4.05
2023-08-08T01:44:07.402Z,3.67
2023-08-08T01:46:37.727Z,3.70
2023-08-08T01:49:05.755Z,3.90
2023-08-08T01:51:33.800Z,3.83
2023-08-08T01:54:01.803Z,3.40
2023-08-08T01:56:29.769Z,3.30
2023-08-08T01:58:57.764Z,3.13
2023-08-08T02:01:27.227Z,3.25
2023-08-08T02:03:55.497Z,3.60
2023-08-08T02:06:24.184Z,3.40
2023-08-08T02:08:52.159Z,3.47
2023-08-08T02:11:20.318Z,3.40
2023-08-08T02:13:48.297Z,3.58
2023-08-08T02:16:16.317Z,3.00
2023-08-08T02:18:45.704Z,3.47
2023-08-08T02:21:13.770Z,3.25
2023-08-08T02:23:41.822Z,4.18
2023-08-08T02:26:09.808Z,3.58
2023-08-08T02:28:37.944Z,4.05
2023-08-08T02:31:05.957Z,3.83
2023-08-08T02:33:33.931Z,4.10
2023-08-08T02:36:03.319Z,3.75
2023-08-08T02:38:31.336Z,3.65
2023-08-08T02:40:59.342Z,3.90
2023-08-08T02:43:27.359Z,3.85
2023-08-08T02:45:55.407Z,3.63
2023-08-08T02:48:23.424Z,3.92
2023-08-08T02:50:51.427Z,3.95
2023-08-08T02:53:20.784Z,3.80
2023-08-08T02:55:49.315Z,4.10
2023-08-08T02:58:17.311Z,3.90
2023-08-08T03:00:45.285Z,3.97
2023-08-08T03:03:13.269Z,3.45
2023-08-08T03:05:41.324Z,3.80
2023-08-08T03:08:09.331Z,3.78
2023-08-08T03:10:39.636Z,3.78
2023-08-08T03:13:07.618Z,4.43
2023-08-08T03:15:36.573Z,4.28
2023-08-08T03:18:05.310Z,4.45
2023-08-08T03:20:33.358Z,3.78
2023-08-08T03:23:01.331Z,3.88
2023-08-08T03:25:29.281Z,4.03
2023-08-08T03:27:58.676Z,4.60
2023-08-08T03:30:26.721Z,4.00
2023-08-08T03:32:54.826Z,4.45
2023-08-08T03:35:22.978Z,4.20
2023-08-08T03:37:51.132Z,4.65
2023-08-08T03:40:22.115Z,4.80
2023-08-08T03:42:50.117Z,4.45
2023-08-08T03:45:19.762Z,4.22
2023-08-08T03:47:47.810Z,4.10
2023-08-08T03:50:15.929Z,4.45
2023-08-08T03:52:43.937Z,4.00
2023-08-08T03:55:12.108Z,4.15
2023-08-08T03:57:40.085Z,4.60
2023-08-08T04:00:09.760Z,4.65
2023-08-08T04:02:39.723Z,3.67
2023-08-08T04:05:08.478Z,4.20
2023-08-08T04:07:37.178Z,3.83
2023-08-08T04:10:07.693Z,4.43
2023-08-08T04:12:35.737Z,4.10
2023-08-08T04:15:03.940Z,4.95
2023-08-08T04:17:34.800Z,5.03
2023-08-08T04:20:06.718Z,4.90
2023-08-08T04:22:36.955Z,5.07
2023-08-08T04:25:07.359Z,4.97
2023-08-08T04:27:35.333Z,5.38
2023-08-08T04:30:04.162Z,4.72
2023-08-08T04:32:32.233Z,4.82
2023-08-08T04:35:00.240Z,4.85
2023-08-08T04:37:29.675Z,4.90
2023-08-08T04:39:57.901Z,5.45
2023-08-08T04:42:25.964Z,4.93
2023-08-08T04:44:54.011Z,4.15
2023-08-08T04:47:22.085Z,4.95
2023-08-08T04:49:50.100Z,4.55
2023-08-08T04:52:18.145Z,4.50
2023-08-08T04:54:47.559Z,4.35
2023-08-08T04:57:15.539Z,4.03
2023-08-08T04:59:45.180Z,4.25
2023-08-08T05:02:13.182Z,3.95
2023-08-08T05:04:41.203Z,4.72
2023-08-08T05:07:09.180Z,3.92
2023-08-08T05:09:37.195Z,3.80
2023-08-08T05:12:07.341Z,3.88
2023-08-08T05:14:35.430Z,3.90
2023-08-08T05:17:04.296Z,3.67
2023-08-08T05:19:32.352Z,3.28
2023-08-08T05:22:00.736Z,3.70
2023-08-08T05:24:29.099Z,3.70
2023-08-08T05:26:57.210Z,3.25
2023-08-08T05:29:26.728Z,3.42
2023-08-08T05:31:54.716Z,3.03
2023-08-08T05:34:22.693Z,3.10
2023-08-08T05:36:58.899Z,3.22
2023-08-08T05:39:34.094Z,3.30
2023-08-08T05:42:02.457Z,3.13
2023-08-08T05:44:32.116Z,2.97
2023-08-08T05:47:00.114Z,2.50
2023-08-08T05:49:28.151Z,2.95
2023-08-08T05:51:56.262Z,3.10
2023-08-08T05:54:24.301Z,3.50
2023-08-08T05:56:52.313Z,3.47
2023-08-08T05:59:20.545Z,3.40
2023-08-08T06:01:49.997Z,3.85
2023-08-08T06:04:18.085Z,3.00
2023-08-08T06:06:46.171Z,3.35
2023-08-08T06:09:14.150Z,3.38
2023-08-08T06:11:42.108Z,3.30
2023-08-08T06:14:10.203Z,3.80
2023-08-08T06:16:38.284Z,3.20
2023-08-08T06:19:08.054Z,3.30
2023-08-08T06:21:36.054Z,3.38
2023-08-08T06:24:04.026Z,3.15
2023-08-08T06:26:32.122Z,2.92
2023-08-08T06:29:00.261Z,3.35
2023-08-08T06:31:28.360Z,2.88
2023-08-08T06:33:56.365Z,3.30
2023-08-08T06:36:25.715Z,3.20
2023-08-08T06:38:53.733Z,3.60
2023-08-08T06:41:21.699Z,3.30
2023-08-08T06:43:58.637Z,3.45
2023-08-08T06:46:26.861Z,3.85
2023-08-08T06:48:58.235Z,3.70
2023-08-08T06:51:27.729Z,3.22
2023-08-08T06:53:55.777Z,3.75
2023-08-08T06:56:23.935Z,3.70
2023-08-08T06:58:51.967Z,3.38
2023-08-08T07:01:20.293Z,2.93
2023-08-08T07:06:18.748Z,2.75
2023-08-08T07:08:48.134Z,2.65
2023-08-08T07:11:16.290Z,2.83
2023-08-08T07:13:44.289Z,2.75
2023-08-08T07:16:12.318Z,2.45
2023-08-08T07:18:40.384Z,2.00
2023-08-08T07:21:08.444Z,2.10
2023-08-08T07:23:36.516Z,1.92
2023-08-08T07:26:05.901Z,1.92
2023-08-08T07:28:34.120Z,1.85
2023-08-08T07:31:02.135Z,1.83
2023-08-08T07:33:30.165Z,1.92
2023-08-08T07:35:58.194Z,1.40
2023-08-08T07:38:26.426Z,1.65
2023-08-08T07:40:54.391Z,1.60
2023-08-08T07:43:23.738Z,1.60
2023-08-08T07:45:51.753Z,1.70
2023-08-08T07:48:19.824Z,2.03
2023-08-08T07:50:48.005Z,2.13
2023-08-08T07:53:15.948Z,1.95
2023-08-08T07:55:44.088Z,2.08
2023-08-08T07:58:12.256Z,2.17
2023-08-08T08:00:42.161Z,2.97
2023-08-08T08:03:10.363Z,2.42
2023-08-08T08:05:38.777Z,2.60
2023-08-08T08:08:07.032Z,3.45
2023-08-08T08:10:35.078Z,2.85
2023-08-08T08:13:03.388Z,2.88
2023-08-08T08:18:01.537Z,3.70
2023-08-08T08:20:29.559Z,3.33
2023-08-08T08:22:57.617Z,3.55
2023-08-08T08:25:25.695Z,3.63
2023-08-08T08:27:53.686Z,3.15
2023-08-08T08:30:21.790Z,3.42
2023-08-08T08:32:49.942Z,3.70
2023-08-08T08:35:19.586Z,3.53
2023-08-08T08:37:47.605Z,4.45
2023-08-08T08:40:16.453Z,3.53
2023-08-08T08:42:45.444Z,3.63
2023-08-08T08:45:14.894Z,3.67
2023-08-08T08:47:45.654Z,4.05
2023-08-08T08:50:13.670Z,3.80
2023-08-08T08:52:45.353Z,4.20
2023-08-08T08:55:14.842Z,3.70
2023-08-08T08:57:45.644Z,3.47
2023-08-08T09:00:16.067Z,3.88
2023-08-08T09:02:47.691Z,4.03
2023-08-08T09:05:17.513Z,3.55
2023-08-08T09:07:46.933Z,3.60
2023-08-08T09:10:17.806Z,3.17
2023-08-08T09:12:46.309Z,3.20
2023-08-08T09:15:14.949Z,3.72
2023-08-08T09:17:48.853Z,3.25
2023-08-08T09:20:20.123Z,3.47
2023-08-08T09:22:49.594Z,3.00
2023-08-08T09:25:17.790Z,3.30
2023-08-08T09:27:46.655Z,2.83
2023-08-08T09:30:15.222Z,3.05
2023-08-08T09:32:45.543Z,3.10
2023-08-08T09:35:13.818Z,3.45
2023-08-08T09:37:41.892Z,2.72
2023-08-08T09:40:12.846Z,3.00
2023-08-08T09:42:42.461Z,3.22
2023-08-08T09:45:11.988Z,2.67
2023-08-08T09:47:40.466Z,2.75
2023-08-08T09:50:09.754Z,3.05
2023-08-08T09:52:40.208Z,3.03
2023-08-08T09:55:09.062Z,3.25
2023-08-08T09:57:40.781Z,2.83
2023-08-08T10:00:13.223Z,2.97
2023-08-08T10:02:41.660Z,2.42
2023-08-08T10:05:12.710Z,2.90
2023-08-08T10:07:41.591Z,2.95
2023-08-08T10:10:11.440Z,2.78
2023-08-08T10:12:42.497Z,2.42
2023-08-08T10:15:11.940Z,2.70
2023-08-08T10:17:40.377Z,1.35
2023-08-08T10:20:12.616Z,1.48
2023-08-08T10:22:45.927Z,1.10
2023-08-08T10:25:20.931Z,0.82
2023-08-08T10:27:50.445Z,1.02
2023-08-08T10:30:18.515Z,1.02
2023-08-08T10:32:48.521Z,0.98
2023-08-08T10:35:17.689Z,0.90
2023-08-08T10:37:55.504Z,0.80
2023-08-08T10:40:23.656Z,0.70
2023-08-08T10:42:54.448Z,0.55
2023-08-08T10:45:22.637Z,0.60
2023-08-08T10:47:50.690Z,0.60
2023-08-08T10:50:25.067Z,0.55
2023-08-08T10:55:23.339Z,0.70
2023-08-08T10:58:02.378Z,0.45
2023-08-08T11:00:32.892Z,0.47
2023-08-08T11:03:01.667Z,0.50
2023-08-08T11:05:31.935Z,0.50
2023-08-08T11:08:00.402Z,0.40
2023-08-08T11:10:32.182Z,0.40
2023-08-08T11:13:06.592Z,0.60
2023-08-08T11:15:40.008Z,0.75
2023-08-08T11:18:09.518Z,0.60
2023-08-08T11:20:39.883Z,0.50
2023-08-08T11:23:11.505Z,0.30
2023-08-08T11:25:42.904Z,0.22
2023-08-08T11:28:13.940Z,0.30
2023-08-08T11:30:46.103Z,0.28
2023-08-08T11:33:16.886Z,0.28
2023-08-08T11:35:50.171Z,0.20
2023-08-08T11:38:19.971Z,0.20
2023-08-08T11:40:48.102Z,0.55
2023-08-08T11:43:17.595Z,0.30
2023-08-08T11:45:45.841Z,0.73
2023-08-08T11:50:44.421Z,0.40
2023-08-08T11:53:13.108Z,0.30
2023-08-08T11:55:42.416Z,0.40
2023-08-08T11:58:15.892Z,0.40
2023-08-08T12:00:47.433Z,0.30
2023-08-08T12:03:19.327Z,0.40
2023-08-08T12:05:48.416Z,0.50
2023-08-08T12:08:20.342Z,0.40
2023-08-08T12:10:53.986Z,0.63
2023-08-08T12:13:23.666Z,0.50
2023-08-08T12:15:56.424Z,0.40
2023-08-08T12:18:24.707Z,0.30
2023-08-08T12:20:52.830Z,0.60
2023-08-08T12:23:20.846Z,0.57
2023-08-08T12:25:49.046Z,0.45
2023-08-08T12:28:17.006Z,0.50
2023-08-08T12:30:45.015Z,0.60
2023-08-08T12:33:14.587Z,0.60
2023-08-08T12:35:42.915Z,0.50
2023-08-08T12:38:11.552Z,0.50
2023-08-08T12:40:39.674Z,0.40
2023-08-08T12:43:07.673Z,0.60
2023-08-08T12:45:35.951Z,0.50
2023-08-08T12:50:33.276Z,0.80
2023-08-08T12:53:01.429Z,0.70
2023-08-08T12:55:29.424Z,0.73
2023-08-08T12:57:57.427Z,0.60
2023-08-08T13:00:25.880Z,0.80
2023-08-08T13:02:53.926Z,0.70
2023-08-08T13:05:22.239Z,0.70
2023-08-08T13:07:51.601Z,0.70
2023-08-08T13:10:21.208Z,0.43
2023-08-08T13:12:49.360Z,0.50
2023-08-08T13:15:17.510Z,0.50
2023-08-08T13:17:46.559Z,0.35
2023-08-08T13:20:14.800Z,0.38
2023-08-08T13:22:43.880Z,0.30
2023-08-08T13:25:17.165Z,0.28
2023-08-08T13:27:45.754Z,0.30
2023-08-08T13:30:16.730Z,0.40
2023-08-08T13:32:45.024Z,0.50
2023-08-08T13:37:40.968Z,0.40
2023-08-08T13:40:10.178Z,0.40
2023-08-08T13:42:39.639Z,0.45
2023-08-08T13:45:09.357Z,0.47
2023-08-08T13:47:37.456Z,0.32
2023-08-08T13:50:06.088Z,0.40
2023-08-08T13:52:34.825Z,0.40
2023-08-08T13:55:02.986Z,0.50
2023-08-08T13:57:31.200Z,0.50
2023-08-08T14:00:00.760Z,0.50
2023-08-08T14:02:28.935Z,0.40
2023-08-08T14:07:24.819Z,0.30
2023-08-08T14:09:55.949Z,0.30
2023-08-08T14:12:23.913Z,0.45
2023-08-08T14:14:51.962Z,0.80
2023-08-08T14:17:21.338Z,0.63
2023-08-08T14:19:49.360Z,0.60
2023-08-08T14:22:17.320Z,0.70
2023-08-08T14:24:45.398Z,0.65
2023-08-08T14:27:13.929Z,0.65
2023-08-08T14:29:41.971Z,0.70
2023-08-08T14:32:10.180Z,0.77
2023-08-08T14:34:40.603Z,0.50
2023-08-08T14:37:11.253Z,0.70
2023-08-08T14:39:39.488Z,0.70
2023-08-08T14:42:07.849Z,0.80
2023-08-08T14:47:04.100Z,0.73
2023-08-08T14:49:32.331Z,0.85
2023-08-08T14:52:02.128Z,0.52
2023-08-08T14:54:30.653Z,0.80
2023-08-08T14:56:59.664Z,0.63
2023-08-08T14:59:27.981Z,0.60
2023-08-08T15:01:56.237Z,0.80
2023-08-08T15:04:24.280Z,0.80
2023-08-08T15:06:52.613Z,0.70
2023-08-08T15:09:22.470Z,0.70
2023-08-08T15:11:50.487Z,0.90
2023-08-08T15:14:18.537Z,0.90
2023-08-08T15:16:51.279Z,0.88
2023-08-08T15:19:19.515Z,0.80
2023-08-08T15:21:47.811Z,0.70
2023-08-08T15:26:44.985Z,0.73
2023-08-08T15:29:15.649Z,0.80
2023-08-08T15:31:45.037Z,0.80
2023-08-08T15:34:13.155Z,0.95
2023-08-08T15:36:41.116Z,0.80
2023-08-08T15:39:09.190Z,0.68
2023-08-08T15:41:37.735Z,1.02
2023-08-08T15:44:07.667Z,0.80
2023-08-08T15:46:35.824Z,0.90
2023-08-08T15:49:05.628Z,0.80
2023-08-08T15:51:33.579Z,0.85
2023-08-08T15:54:01.581Z,0.70
2023-08-08T15:56:29.644Z,0.60
2023-08-08T15:58:58.208Z,0.70
2023-08-08T16:01:27.825Z,0.80
2023-08-08T16:03:55.837Z,0.80
2023-08-08T16:06:25.247Z,0.70
2023-08-08T16:08:53.975Z,0.80
2023-08-08T16:11:22.021Z,0.70
2023-08-08T16:13:50.040Z,0.52
2023-08-08T16:16:18.217Z,0.68
2023-08-08T16:18:47.796Z,0.82
2023-08-08T16:21:15.852Z,0.70
2023-08-08T16:23:44.029Z,0.60
2023-08-08T16:26:12.052Z,0.70
2023-08-08T16:28:40.225Z,0.57
2023-08-08T16:31:08.827Z,0.60
2023-08-08T16:33:37.138Z,0.73
2023-08-08T16:38:37.773Z,0.70
2023-08-08T16:41:06.116Z,0.65
2023-08-08T16:46:05.690Z,0.68
2023-08-08T16:48:34.122Z,0.80
2023-08-08T16:51:02.398Z,0.57
2023-08-08T16:53:31.830Z,0.70
2023-08-08T16:56:03.797Z,0.77
2023-08-08T16:58:31.946Z,0.60
2023-08-08T17:01:00.271Z,0.40
2023-08-08T17:03:28.694Z,0.60
2023-08-08T17:08:24.484Z,0.70
2023-08-08T17:10:55.625Z,0.70
2023-08-08T17:13:23.806Z,0.70
2023-08-08T17:15:51.924Z,0.50
2023-08-08T17:18:19.945Z,0.55
2023-08-08T17:20:48.002Z,0.80
2023-08-08T17:23:15.996Z,0.63
2023-08-08T17:25:44.020Z,0.70
2023-08-08T17:28:13.413Z,0.52
2023-08-08T17:30:41.526Z,0.70
2023-08-08T17:33:09.520Z,0.77
2023-08-08T17:35:37.575Z,0.80
2023-08-08T17:38:05.749Z,0.63
2023-08-08T17:40:33.767Z,0.47
2023-08-08T17:43:01.746Z,0.43
2023-08-08T17:45:31.256Z,0.55
2023-08-08T17:47:59.378Z,0.80
2023-08-08T17:50:27.424Z,0.60
2023-08-08T17:52:55.437Z,0.40
2023-08-08T17:55:23.637Z,0.68
2023-08-08T17:57:51.744Z,0.50
2023-08-08T18:00:20.322Z,0.47
2023-08-08T18:02:49.815Z,0.55
2023-08-08T18:05:17.853Z,0.60
2023-08-08T18:07:45.852Z,0.60
2023-08-08T18:10:13.880Z,0.50
2023-08-08T18:12:42.846Z,0.50
2023-08-08T18:15:11.759Z,0.50
2023-08-08T18:17:39.776Z,0.50
2023-08-08T18:20:10.948Z,0.60
2023-08-08T18:22:38.951Z,0.60
2023-08-08T18:25:06.625Z,0.80
2023-08-08T18:27:34.639Z,0.50
2023-08-08T18:30:02.878Z,0.70
2023-08-08T18:32:33.603Z,0.63
2023-08-08T18:35:01.730Z,0.40
2023-08-08T18:37:31.375Z,0.70
2023-08-08T18:39:59.443Z,0.80
2023-08-08T18:42:27.556Z,0.40
2023-08-08T18:44:55.593Z,0.35
2023-08-08T18:47:23.643Z,0.30
2023-08-08T18:49:51.680Z,0.40
2023-08-08T18:52:19.702Z,0.30
2023-08-08T18:54:49.328Z,0.40
2023-08-08T18:57:17.458Z,0.38
2023-08-08T18:59:45.509Z,0.40
2023-08-08T19:02:13.545Z,0.30
2023-08-08T19:04:41.641Z,0.22
2023-08-08T19:07:09.729Z,0.35
2023-08-08T19:09:37.816Z,0.20
2023-08-08T19:12:07.801Z,0.15
2023-08-08T19:14:35.837Z,0.22
2023-08-08T19:17:03.892Z,0.30
2023-08-08T19:19:51.910Z,0.20
2023-08-08T19:22:26.612Z,0.25
2023-08-08T19:24:54.665Z,0.20
2023-08-08T19:28:11.607Z,0.20
2023-08-08T19:30:41.118Z,0.20
2023-08-08T19:33:10.000Z,0.10
2023-08-08T19:35:37.995Z,0.10
2023-08-08T19:38:06.068Z,0.13
2023-08-08T19:40:34.287Z,0.10
2023-08-08T19:43:02.375Z,0.10
2023-08-08T19:45:30.431Z,0.10
2023-08-08T19:47:59.967Z,0.15
2023-08-08T19:50:28.084Z,0.10
2023-08-08T19:52:56.276Z,0.10
2023-08-08T19:55:24.334Z,0.15
2023-08-08T19:57:52.368Z,0.30
2023-08-08T20:00:21.318Z,0.20
2023-08-08T20:02:49.395Z,0.00
2023-08-08T20:05:19.029Z,0.08
2023-08-08T20:07:47.629Z,0.05
2023-08-08T20:10:15.825Z,0.00
2023-08-08T20:12:44.244Z,0.10
2023-08-08T20:17:43.515Z,0.00
2023-08-08T20:20:12.619Z,0.00
2023-08-08T20:22:41.978Z,0.00
2023-08-08T20:25:10.506Z,0.00
2023-08-08T20:27:38.497Z,0.05
2023-08-08T20:30:08.207Z,0.10
2023-08-08T20:32:36.734Z,0.00
2023-08-08T20:35:04.949Z,0.10
2023-08-08T20:37:32.931Z,0.00
2023-08-08T20:40:02.321Z,0.00
2023-08-08T20:42:30.294Z,0.10
2023-08-08T20:44:58.327Z,0.00
2023-08-08T20:47:26.377Z,0.00
2023-08-08T20:49:54.448Z,0.00
2023-08-08T20:52:22.426Z,0.10
2023-08-08T20:54:50.685Z,0.00
2023-08-08T20:57:20.080Z,0.00
2023-08-08T20:59:48.100Z,0.10
2023-08-08T21:02:17.259Z,0.00
2023-08-08T21:04:46.221Z,0.10
2023-08-08T21:07:15.903Z,0.00
2023-08-08T21:09:43.940Z,0.10
2023-08-08T21:12:13.048Z,0.03
2023-08-08T21:14:42.668Z,0.00
2023-08-08T21:17:11.245Z,0.10
2023-08-08T21:19:39.521Z,0.20
2023-08-08T21:22:07.952Z,0.10
2023-08-08T21:27:04.591Z,0.20
2023-08-08T21:29:32.832Z,0.00
2023-08-08T21:32:02.266Z,0.10
2023-08-08T21:34:33.276Z,0.00
2023-08-08T21:37:01.562Z,0.03
2023-08-08T21:41:57.636Z,0.20
2023-08-08T21:44:25.788Z,0.10
2023-08-08T21:46:53.904Z,0.20
2023-08-08T21:49:23.464Z,0.10
2023-08-08T21:51:51.678Z,0.10
2023-08-08T21:54:19.655Z,0.35
2023-08-08T21:56:47.685Z,0.10
2023-08-08T21:59:15.825Z,0.10
2023-08-08T22:01:43.837Z,0.10
2023-08-08T22:04:12.007Z,0.20
2023-08-08T22:06:42.578Z,0.20
2023-08-08T22:09:10.958Z,0.20
2023-08-08T22:11:39.031Z,0.30
2023-08-08T22:14:07.081Z,0.30
2023-08-08T22:16:35.190Z,0.30
2023-08-08T22:19:04.467Z,0.32
2023-08-08T22:21:32.832Z,0.50
2023-08-08T22:24:02.340Z,0.50
2023-08-08T22:26:30.396Z,0.47
2023-08-08T22:28:58.616Z,0.43
2023-08-08T22:31:26.584Z,0.45
2023-08-08T22:33:54.563Z,0.60
2023-08-08T22:36:22.905Z,0.70
2023-08-08T22:38:52.119Z,0.65
2023-08-08T22:41:21.582Z,0.90
2023-08-08T22:43:49.597Z,0.70
2023-08-08T22:46:17.683Z,0.85
2023-08-08T22:48:45.748Z,0.65
2023-08-08T22:51:13.742Z,0.70
2023-08-08T22:53:43.787Z,0.82
2023-08-08T22:56:12.284Z,0.90
2023-08-08T23:01:09.449Z,0.88
2023-08-08T23:03:38.823Z,0.90
2023-08-08T23:06:06.961Z,0.95
2023-08-08T23:08:34.949Z,0.90
2023-08-08T23:11:02.915Z,0.90
2023-08-08T23:13:30.986Z,0.98
2023-08-08T23:16:00.337Z,1.00
2023-08-08T23:18:28.393Z,1.00
2023-08-08T23:20:56.381Z,1.00
2023-08-08T23:23:24.445Z,1.10
2023-08-08T23:25:53.212Z,1.20
2023-08-08T23:28:21.836Z,1.00
2023-08-08T23:30:50.056Z,1.20
2023-08-08T23:33:19.806Z,1.33
2023-08-08T23:35:47.878Z,1.00
2023-08-08T23:38:15.883Z,1.10
2023-08-08T23:40:43.910Z,1.20
2023-08-08T23:43:11.990Z,1.25
2023-08-08T23:45:40.162Z,0.88
2023-08-08T23:48:08.473Z,1.40
2023-08-08T23:50:37.902Z,1.55
2023-08-08T23:53:05.980Z,0.80
2023-08-08T23:55:34.169Z,1.17
2023-08-08T23:58:02.244Z,1.00
